Weather at Barcelona International Airport

Public forecast

Using degrees Celsius for public forecast. Weather courtesy of forecast.io.

Current aviation weather report (METAR) for Barcelona International Airport

Retrieved 2021/07/29 08:00 UTC (14 minutes ago):

LEBL 290800Z 24002KT CAVOK 27/18 Q1016 NOSIG

Aviation forecast (TAF) for Barcelona International Airport

Retrieved 2021/07/29 06:27 UTC (2 hours ago):

TAF LEBL 290500Z 2906/3006 34004KT 9999 SCT020 TX29/2914Z TN22/2906Z BECMG 2908/2910 18010KT